createdAt,value
2023-01-09T00:01:51.731Z,8.10
2023-01-09T00:04:19.754Z,8.04
2023-01-09T00:06:53.712Z,8.12
2023-01-09T00:09:22.065Z,8.03
2023-01-09T00:11:50.288Z,8.10
2023-01-09T00:14:18.108Z,8.12
2023-01-09T00:16:47.088Z,8.18
2023-01-09T00:19:14.628Z,8.16
2023-01-09T00:21:42.170Z,8.21
2023-01-09T00:24:10.681Z,8.21
2023-01-09T00:26:38.135Z,8.28
2023-01-09T00:29:05.638Z,8.30
2023-01-09T00:31:33.081Z,8.38
2023-01-09T00:34:04.605Z,8.33
2023-01-09T00:36:32.049Z,8.31
2023-01-09T00:38:59.701Z,8.25
2023-01-09T00:41:28.946Z,8.20
2023-01-09T00:43:59.461Z,8.26
2023-01-09T00:46:31.619Z,8.23
2023-01-09T00:48:59.220Z,8.27
2023-01-09T00:51:28.707Z,8.34
2023-01-09T00:53:56.249Z,8.21
2023-01-09T00:56:23.868Z,8.24
2023-01-09T00:58:52.782Z,8.21
2023-01-09T01:01:20.299Z,8.36
2023-01-09T01:03:47.818Z,8.27
2023-01-09T01:06:44.444Z,8.24
2023-01-09T01:09:13.228Z,8.21
2023-01-09T01:11:40.657Z,8.24
2023-01-09T01:14:08.143Z,8.23
2023-01-09T01:16:35.603Z,8.30
2023-01-09T01:19:03.054Z,8.35
2023-01-09T01:21:30.487Z,8.34
2023-01-09T01:23:57.967Z,8.34
2023-01-09T01:26:26.736Z,8.51
2023-01-09T01:28:54.192Z,8.33
2023-01-09T01:31:21.642Z,8.24
2023-01-09T01:33:49.119Z,8.34
2023-01-09T01:36:17.785Z,8.39
2023-01-09T01:38:46.743Z,8.19
2023-01-09T01:41:14.225Z,8.18
2023-01-09T01:43:54.467Z,8.17
2023-01-09T01:46:22.275Z,8.17
2023-01-09T01:48:52.528Z,8.22
2023-01-09T01:51:21.028Z,8.21
2023-01-09T01:53:52.413Z,8.23
2023-01-09T01:56:24.382Z,8.39
2023-01-09T01:58:56.814Z,8.22
2023-01-09T02:01:25.493Z,8.17
2023-01-09T02:03:54.487Z,8.24
2023-01-09T02:06:21.941Z,8.10
2023-01-09T02:08:49.696Z,8.07
2023-01-09T02:11:18.741Z,8.00
2023-01-09T02:13:46.487Z,8.03
2023-01-09T02:16:26.949Z,8.07
2023-01-09T02:18:59.462Z,8.00
2023-01-09T02:21:34.853Z,7.93
2023-01-09T02:24:39.364Z,8.08
2023-01-09T02:27:21.078Z,8.07
2023-01-09T02:30:21.811Z,7.92
2023-01-09T02:32:57.749Z,8.02
2023-01-09T02:35:35.933Z,7.79
2023-01-09T02:38:08.450Z,7.87
2023-01-09T02:40:39.983Z,7.79
2023-01-09T02:43:08.429Z,7.82
2023-01-09T02:45:37.253Z,7.86
2023-01-09T02:48:05.054Z,7.75
2023-01-09T02:50:38.087Z,7.77
2023-01-09T02:53:33.997Z,7.71
2023-01-09T02:56:12.210Z,7.70
2023-01-09T02:58:57.856Z,7.68
2023-01-09T03:01:34.144Z,7.77
2023-01-09T03:04:07.377Z,7.65
2023-01-09T03:06:39.404Z,7.54
2023-01-09T03:09:09.995Z,7.55
2023-01-09T03:11:43.715Z,7.55
2023-01-09T03:14:14.939Z,7.76
2023-01-09T03:16:46.653Z,7.60
2023-01-09T03:19:16.814Z,7.40
2023-01-09T03:21:44.830Z,7.46
2023-01-09T03:24:12.252Z,7.55
2023-01-09T03:26:39.739Z,7.51
2023-01-09T03:29:07.223Z,7.60
2023-01-09T03:31:34.777Z,7.41
2023-01-09T03:34:03.572Z,7.61
2023-01-09T03:36:31.208Z,7.49
2023-01-09T03:38:58.664Z,7.48
2023-01-09T03:41:26.142Z,7.35
2023-01-09T03:43:53.591Z,7.33
2023-01-09T03:46:21.061Z,7.29
2023-01-09T03:48:48.635Z,7.35
2023-01-09T03:51:17.482Z,7.22
2023-01-09T03:53:44.923Z,7.37
2023-01-09T03:56:12.455Z,7.29
2023-01-09T03:58:39.886Z,7.28
2023-01-09T04:01:09.358Z,7.23
2023-01-09T04:03:37.025Z,7.28
2023-01-09T04:06:04.959Z,7.27
2023-01-09T04:08:33.774Z,7.14
2023-01-09T04:11:01.242Z,7.22
2023-01-09T04:13:28.720Z,7.18
2023-01-09T04:15:56.241Z,7.21
2023-01-09T04:18:23.682Z,7.15
2023-01-09T04:20:51.144Z,7.11
2023-01-09T04:23:18.632Z,7.16
2023-01-09T04:25:47.654Z,7.11
2023-01-09T04:28:15.153Z,7.22
2023-01-09T04:30:42.629Z,7.13
2023-01-09T04:33:10.067Z,7.11
2023-01-09T04:35:37.553Z,7.19
2023-01-09T04:38:05.008Z,7.09
2023-01-09T04:40:32.462Z,7.02
2023-01-09T04:43:01.258Z,7.01
2023-01-09T04:45:28.798Z,7.09
2023-01-09T04:47:56.310Z,6.99
2023-01-09T04:50:23.765Z,6.89
2023-01-09T04:52:51.238Z,7.09
2023-01-09T04:55:18.852Z,7.10
2023-01-09T04:57:46.301Z,7.11
2023-01-09T05:00:15.822Z,6.90
2023-01-09T05:02:43.314Z,6.98
2023-01-09T05:05:12.093Z,6.91
2023-01-09T05:07:39.909Z,6.94
2023-01-09T05:10:08.665Z,7.00
2023-01-09T05:12:36.435Z,7.06
2023-01-09T05:15:03.976Z,6.95
2023-01-09T05:17:32.805Z,6.99
2023-01-09T05:20:00.775Z,6.85
2023-01-09T05:22:28.416Z,6.90
2023-01-09T05:24:55.947Z,6.88
2023-01-09T05:27:23.449Z,6.86
2023-01-09T05:29:50.943Z,7.05
2023-01-09T05:32:18.398Z,6.92
2023-01-09T05:34:47.173Z,6.93
2023-01-09T05:37:14.625Z,6.87
2023-01-09T05:39:42.076Z,7.02
2023-01-09T05:42:09.542Z,6.99
2023-01-09T05:44:37.026Z,6.90
2023-01-09T05:47:04.597Z,6.99
2023-01-09T05:49:32.057Z,6.86
2023-01-09T05:52:00.919Z,7.02
2023-01-09T05:54:28.362Z,6.87
2023-01-09T05:56:55.895Z,6.75
2023-01-09T05:59:23.415Z,6.67
2023-01-09T06:01:51.005Z,6.62
2023-01-09T06:04:18.481Z,6.69
2023-01-09T06:06:45.951Z,6.79
2023-01-09T06:09:14.804Z,6.73
2023-01-09T06:11:42.255Z,6.65
2023-01-09T06:14:09.787Z,6.48
2023-01-09T06:16:37.285Z,6.49
2023-01-09T06:19:05.723Z,6.36
2023-01-09T06:21:33.222Z,6.36
2023-01-09T06:24:00.806Z,6.42
2023-01-09T06:26:29.657Z,6.36
2023-01-09T06:28:57.185Z,6.40
2023-01-09T06:31:25.466Z,6.40
2023-01-09T06:33:53.196Z,6.49
2023-01-09T06:36:22.585Z,6.54
2023-01-09T06:38:50.191Z,6.54
2023-01-09T06:41:17.783Z,6.66
2023-01-09T06:43:46.624Z,6.65
2023-01-09T06:46:14.139Z,6.73
2023-01-09T06:48:41.659Z,6.81
2023-01-09T06:51:09.113Z,6.74
2023-01-09T06:53:36.571Z,6.73
2023-01-09T06:56:04.162Z,6.80
2023-01-09T06:58:31.643Z,6.79
2023-01-09T07:01:00.712Z,6.73
2023-01-09T07:03:28.281Z,6.76
2023-01-09T07:05:55.804Z,6.73
2023-01-09T07:08:23.278Z,6.78
2023-01-09T07:10:50.764Z,6.81
2023-01-09T07:13:18.244Z,6.77
2023-01-09T07:15:45.794Z,6.76
2023-01-09T07:18:14.616Z,6.74
2023-01-09T07:20:42.542Z,6.73
2023-01-09T07:23:11.997Z,6.80
2023-01-09T07:25:39.589Z,6.74
2023-01-09T07:28:07.037Z,6.75
2023-01-09T07:30:34.527Z,6.73
2023-01-09T07:33:03.881Z,6.88
2023-01-09T07:35:33.081Z,6.84
2023-01-09T07:38:00.543Z,6.78
2023-01-09T07:40:28.008Z,6.74
2023-01-09T07:42:55.580Z,6.93
2023-01-09T07:45:23.063Z,6.95
2023-01-09T07:47:52.197Z,6.95
2023-01-09T07:50:20.207Z,6.87
2023-01-09T07:52:49.197Z,6.93
2023-01-09T07:55:17.631Z,7.06
2023-01-09T07:57:49.281Z,7.04
2023-01-09T08:00:17.411Z,7.01
2023-01-09T08:02:45.013Z,7.12
2023-01-09T08:05:14.846Z,7.10
2023-01-09T08:07:42.489Z,7.06
2023-01-09T08:10:12.621Z,7.08
2023-01-09T08:12:43.597Z,7.13
2023-01-09T08:15:11.842Z,7.16
2023-01-09T08:17:42.974Z,7.19
2023-01-09T08:20:12.159Z,7.02
2023-01-09T08:22:39.989Z,7.11
2023-01-09T08:25:09.515Z,7.11
2023-01-09T08:27:40.378Z,7.14
2023-01-09T08:30:09.611Z,7.20
2023-01-09T08:32:37.332Z,7.20
2023-01-09T08:35:05.222Z,7.28
2023-01-09T08:37:32.724Z,7.14
2023-01-09T08:40:00.191Z,7.17
2023-01-09T08:42:50.713Z,7.14
2023-01-09T08:45:37.224Z,7.25
2023-01-09T08:48:05.003Z,7.43
2023-01-09T08:50:33.553Z,7.39
2023-01-09T08:53:01.020Z,7.42
2023-01-09T08:55:28.483Z,7.43
2023-01-09T08:57:56.716Z,7.50
2023-01-09T09:00:26.083Z,7.66
2023-01-09T09:02:54.538Z,7.73
2023-01-09T09:05:22.705Z,7.66
2023-01-09T09:07:50.227Z,7.61
2023-01-09T09:10:18.431Z,7.57
2023-01-09T09:12:46.282Z,7.63
2023-01-09T09:15:13.772Z,7.66
2023-01-09T09:17:43.141Z,7.73
2023-01-09T09:20:11.927Z,7.79
2023-01-09T09:22:39.417Z,7.68
2023-01-09T09:25:07.502Z,7.53
2023-01-09T09:27:36.456Z,7.51
2023-01-09T09:30:04.502Z,7.56
2023-01-09T09:32:32.102Z,7.58
2023-01-09T09:35:00.912Z,7.64
2023-01-09T09:37:28.418Z,7.59
2023-01-09T09:39:56.813Z,7.55
2023-01-09T09:42:57.669Z,7.71
2023-01-09T09:45:34.328Z,7.63
2023-01-09T09:48:10.092Z,7.69
2023-01-09T09:50:52.685Z,7.74
2023-01-09T09:53:23.088Z,7.43
2023-01-09T09:55:51.607Z,7.66
2023-01-09T09:58:22.747Z,7.63
2023-01-09T10:00:50.861Z,7.44
2023-01-09T10:03:33.830Z,7.46
2023-01-09T10:06:05.755Z,7.42
2023-01-09T10:08:38.961Z,7.48
2023-01-09T10:11:14.335Z,7.41
2023-01-09T10:13:59.311Z,7.49
2023-01-09T10:16:40.309Z,7.48
2023-01-09T10:19:19.268Z,7.42
2023-01-09T10:21:55.853Z,7.46
2023-01-09T10:24:32.705Z,7.45
2023-01-09T10:27:04.000Z,7.43
2023-01-09T10:29:41.681Z,7.40
2023-01-09T10:35:55.120Z,7.28
2023-01-09T10:38:26.264Z,7.45
2023-01-09T10:41:01.321Z,7.34
2023-01-09T10:43:32.229Z,7.31
2023-01-09T10:46:03.150Z,7.36
2023-01-09T10:48:33.551Z,7.29
2023-01-09T10:51:01.043Z,7.33
2023-01-09T10:53:33.545Z,7.33
2023-01-09T10:56:04.524Z,7.25
2023-01-09T10:58:32.231Z,7.40
2023-01-09T11:01:01.467Z,7.43
2023-01-09T11:03:29.872Z,7.57
2023-01-09T11:05:58.792Z,7.80
2023-01-09T11:08:31.616Z,7.77
2023-01-09T11:11:00.902Z,7.82
2023-01-09T11:13:30.290Z,7.80
2023-01-09T11:16:08.077Z,7.80
2023-01-09T11:18:36.519Z,7.72
2023-01-09T11:21:27.030Z,7.76
2023-01-09T11:23:56.077Z,7.85
2023-01-09T11:26:25.344Z,7.99
2023-01-09T11:29:10.993Z,8.13
2023-01-09T11:31:38.772Z,8.09
2023-01-09T11:34:08.062Z,8.20
2023-01-09T11:36:35.586Z,8.17
2023-01-09T11:39:04.665Z,8.28
2023-01-09T11:41:34.809Z,8.07
2023-01-09T11:44:04.107Z,8.05
2023-01-09T11:46:38.095Z,8.22
2023-01-09T11:49:07.576Z,8.26
2023-01-09T11:51:36.757Z,8.28
2023-01-09T11:54:17.565Z,8.43
2023-01-09T11:56:45.365Z,8.51
2023-01-09T11:59:14.222Z,8.59
2023-01-09T12:02:14.266Z,8.55
2023-01-09T12:04:45.493Z,8.58
2023-01-09T12:08:03.029Z,8.54
2023-01-09T12:10:59.386Z,8.49
2023-01-09T12:13:39.227Z,8.42
2023-01-09T12:16:12.427Z,8.41
2023-01-09T12:18:49.908Z,8.30
2023-01-09T12:21:35.887Z,7.96
2023-01-09T12:24:25.274Z,7.81
2023-01-09T12:27:02.244Z,7.77
2023-01-09T12:30:03.101Z,7.77
2023-01-09T12:32:42.186Z,7.68
2023-01-09T12:35:20.635Z,7.70
2023-01-09T12:38:02.458Z,7.60
2023-01-09T12:40:43.505Z,7.54
2023-01-09T12:43:20.123Z,7.72
2023-01-09T12:45:57.806Z,7.74
2023-01-09T12:48:40.382Z,7.74
2023-01-09T12:51:17.687Z,7.86
2023-01-09T12:53:48.367Z,7.95
2023-01-09T12:56:17.910Z,8.00
2023-01-09T12:58:48.879Z,8.01
2023-01-09T13:01:19.013Z,8.15
2023-01-09T13:03:52.332Z,8.31
2023-01-09T13:06:22.123Z,8.27
2023-01-09T13:08:54.410Z,8.27
2023-01-09T13:11:27.100Z,8.23
2023-01-09T13:13:58.260Z,8.27
2023-01-09T13:16:28.362Z,8.22
2023-01-09T13:18:58.867Z,8.22
2023-01-09T13:21:26.875Z,8.17
2023-01-09T13:23:56.883Z,8.22
2023-01-09T13:26:26.998Z,8.19
2023-01-09T13:29:00.485Z,8.04
2023-01-09T13:31:51.569Z,8.04
2023-01-09T13:34:22.547Z,8.04
2023-01-09T13:36:51.738Z,8.00
2023-01-09T13:39:24.376Z,8.16
2023-01-09T13:42:14.040Z,8.04
2023-01-09T13:44:43.500Z,8.13
2023-01-09T13:47:18.787Z,8.08
2023-01-09T13:50:01.009Z,8.05
2023-01-09T13:52:34.261Z,7.90
2023-01-09T13:55:35.696Z,7.99
2023-01-09T13:58:22.358Z,8.00
2023-01-09T14:00:53.940Z,7.94
2023-01-09T14:03:25.819Z,7.89
2023-01-09T14:06:20.355Z,7.89
2023-01-09T14:08:49.193Z,7.84
2023-01-09T14:11:20.725Z,7.78
2023-01-09T14:13:53.833Z,7.83
2023-01-09T14:16:24.888Z,7.70
2023-01-09T14:18:54.483Z,7.65
2023-01-09T14:21:25.229Z,7.66
2023-01-09T14:24:02.798Z,7.84
2023-01-09T14:26:44.389Z,7.68
2023-01-09T14:29:44.468Z,7.79
2023-01-09T14:32:47.417Z,7.66
2023-01-09T14:35:19.083Z,7.52
2023-01-09T14:37:54.225Z,7.46
2023-01-09T14:40:23.643Z,7.50
2023-01-09T14:42:55.063Z,7.55
2023-01-09T14:45:24.847Z,7.45
2023-01-09T14:47:56.827Z,7.39
2023-01-09T14:50:30.499Z,7.42
2023-01-09T14:53:03.413Z,7.46
2023-01-09T14:55:34.498Z,7.45
2023-01-09T14:58:11.658Z,7.44
2023-01-09T15:00:48.051Z,7.44
2023-01-09T15:03:17.406Z,7.44
2023-01-09T15:05:45.525Z,7.38
2023-01-09T15:08:16.724Z,7.34
2023-01-09T15:10:45.356Z,7.28
2023-01-09T15:13:16.503Z,7.29
2023-01-09T15:15:46.205Z,7.29
2023-01-09T15:18:21.367Z,7.35
2023-01-09T15:20:53.113Z,7.44
2023-01-09T15:23:25.300Z,7.36
2023-01-09T15:25:53.245Z,7.38
2023-01-09T15:28:30.673Z,7.40
2023-01-09T15:31:01.965Z,7.38
2023-01-09T15:33:30.925Z,7.39
2023-01-09T15:36:02.448Z,7.42
2023-01-09T15:38:32.511Z,7.34
2023-01-09T15:41:01.042Z,7.37
2023-01-09T15:43:30.054Z,7.42
2023-01-09T15:45:58.921Z,7.47
2023-01-09T15:48:29.268Z,7.35
2023-01-09T15:51:01.656Z,7.43
2023-01-09T15:53:29.748Z,7.28
2023-01-09T15:56:08.745Z,7.33
2023-01-09T15:58:37.798Z,7.43
2023-01-09T16:01:07.786Z,7.27
2023-01-09T16:03:37.570Z,7.28
2023-01-09T16:06:10.811Z,7.22
2023-01-09T16:08:40.829Z,7.33
2023-01-09T16:11:10.949Z,7.24
2023-01-09T16:13:44.641Z,7.29
2023-01-09T16:16:13.221Z,7.19
2023-01-09T16:18:51.125Z,7.14
2023-01-09T16:21:32.292Z,7.13
2023-01-09T16:24:02.962Z,7.18
2023-01-09T16:26:31.487Z,7.14
2023-01-09T16:29:33.453Z,7.09
2023-01-09T16:32:01.802Z,7.13
2023-01-09T16:34:29.730Z,7.26
2023-01-09T16:36:58.640Z,7.13
2023-01-09T16:39:26.408Z,7.13
2023-01-09T16:42:14.959Z,7.14
2023-01-09T16:44:42.475Z,7.06
2023-01-09T16:47:11.937Z,7.14
2023-01-09T16:49:39.526Z,7.10
2023-01-09T16:52:15.845Z,7.13
2023-01-09T16:54:46.631Z,7.12
2023-01-09T16:57:17.631Z,7.17
2023-01-09T16:59:45.321Z,7.18
2023-01-09T17:02:18.291Z,7.30
2023-01-09T17:04:45.925Z,7.10
2023-01-09T17:07:16.002Z,7.19
2023-01-09T17:09:43.893Z,7.07
2023-01-09T17:12:16.332Z,7.12
2023-01-09T17:14:43.925Z,7.04
2023-01-09T17:17:12.393Z,6.87
2023-01-09T17:19:40.208Z,6.77
2023-01-09T17:22:07.656Z,6.76
2023-01-09T17:24:53.871Z,6.68
2023-01-09T17:27:45.007Z,6.71
2023-01-09T17:30:18.843Z,6.74
2023-01-09T17:32:46.854Z,6.82
2023-01-09T17:35:15.366Z,6.73
2023-01-09T17:37:43.417Z,6.72
2023-01-09T17:40:17.867Z,6.68
2023-01-09T17:42:45.430Z,6.75
2023-01-09T17:45:13.119Z,6.61
2023-01-09T17:47:40.915Z,6.62
2023-01-09T17:50:11.439Z,6.56
2023-01-09T17:52:38.897Z,6.64
2023-01-09T17:55:07.628Z,6.61
2023-01-09T17:57:36.507Z,6.64
2023-01-09T18:00:06.010Z,6.64
2023-01-09T18:02:33.536Z,6.57
2023-01-09T18:05:01.074Z,6.49
2023-01-09T18:07:28.529Z,6.51
2023-01-09T18:09:55.978Z,6.61
2023-01-09T18:12:23.416Z,6.87
2023-01-09T18:14:53.875Z,6.72
2023-01-09T18:17:21.406Z,6.57
2023-01-09T18:19:50.083Z,6.64
2023-01-09T18:22:17.548Z,6.68
2023-01-09T18:24:45.080Z,6.78
2023-01-09T18:27:12.521Z,6.77
2023-01-09T18:29:40.028Z,6.56
2023-01-09T18:32:08.975Z,6.43
2023-01-09T18:34:36.523Z,6.39
2023-01-09T18:37:04.026Z,6.45
2023-01-09T18:39:31.675Z,6.58
2023-01-09T18:41:59.536Z,6.39
2023-01-09T18:44:27.536Z,6.45
2023-01-09T18:46:55.358Z,6.34
2023-01-09T18:49:24.251Z,6.36
2023-01-09T18:51:51.837Z,6.30
2023-01-09T18:54:19.695Z,6.21
2023-01-09T18:56:47.332Z,6.22
2023-01-09T18:59:15.086Z,6.32
2023-01-09T19:01:43.239Z,6.16
2023-01-09T19:04:10.853Z,6.25
2023-01-09T19:06:39.884Z,6.25
2023-01-09T19:09:07.473Z,6.19
2023-01-09T19:11:35.025Z,6.01
2023-01-09T19:14:02.700Z,6.02
2023-01-09T19:16:33.813Z,6.10
2023-01-09T19:19:02.653Z,6.09
2023-01-09T19:21:30.595Z,5.90
2023-01-09T19:23:59.885Z,5.99
2023-01-09T19:26:31.826Z,5.94
2023-01-09T19:29:00.809Z,5.94
2023-01-09T19:31:29.722Z,5.77
2023-01-09T19:33:57.869Z,5.70
2023-01-09T19:36:25.647Z,5.74
2023-01-09T19:38:56.791Z,5.66
2023-01-09T19:41:25.717Z,5.68
2023-01-09T19:43:54.190Z,5.72
2023-01-09T19:46:23.932Z,5.62
2023-01-09T19:48:52.582Z,5.55
2023-01-09T19:51:22.538Z,5.60
2023-01-09T19:53:53.415Z,5.67
2023-01-09T19:56:22.693Z,5.65
2023-01-09T19:58:52.867Z,5.65
2023-01-09T20:01:24.415Z,5.61
2023-01-09T20:03:52.850Z,5.53
2023-01-09T20:06:24.079Z,5.52
2023-01-09T20:08:54.100Z,5.38
2023-01-09T20:11:22.491Z,5.61
2023-01-09T20:13:51.601Z,5.50
2023-01-09T20:16:20.965Z,5.76
2023-01-09T20:18:49.156Z,5.68
2023-01-09T20:21:18.494Z,5.81
2023-01-09T20:23:46.009Z,5.84
2023-01-09T20:26:13.696Z,5.93
2023-01-09T20:28:41.411Z,5.83
2023-01-09T20:31:11.887Z,5.83
2023-01-09T20:33:40.328Z,5.78
2023-01-09T20:36:09.383Z,5.73
2023-01-09T20:38:37.836Z,5.48
2023-01-09T20:41:09.889Z,5.50
2023-01-09T20:43:37.631Z,5.51
2023-01-09T20:46:06.029Z,5.63
2023-01-09T20:48:35.059Z,6.04
2023-01-09T20:51:06.883Z,5.94
2023-01-09T20:53:34.548Z,5.76
2023-01-09T20:56:02.525Z,5.77
2023-01-09T20:58:30.137Z,5.89
2023-01-09T21:00:57.817Z,5.86
2023-01-09T21:03:25.404Z,6.04
2023-01-09T21:05:54.301Z,5.95
2023-01-09T21:08:21.847Z,5.93
2023-01-09T21:10:49.364Z,5.90
2023-01-09T21:13:17.069Z,6.02
2023-01-09T21:15:44.663Z,5.92
2023-01-09T21:18:12.230Z,6.02
2023-01-09T21:20:40.681Z,5.92
2023-01-09T21:23:09.749Z,6.01
2023-01-09T21:25:39.527Z,6.01
2023-01-09T21:28:07.325Z,6.14
2023-01-09T21:30:37.601Z,6.22
2023-01-09T21:33:05.379Z,6.10
2023-01-09T21:35:32.878Z,5.94
2023-01-09T21:38:02.442Z,5.80
2023-01-09T21:40:31.374Z,5.72
2023-01-09T21:43:16.744Z,5.54
2023-01-09T21:46:13.550Z,5.53
2023-01-09T21:48:41.044Z,5.35
2023-01-09T21:51:08.562Z,5.25
2023-01-09T21:53:36.090Z,5.42
2023-01-09T21:56:05.850Z,5.37
2023-01-09T21:58:33.867Z,5.49
2023-01-09T22:01:03.348Z,5.61
2023-01-09T22:03:30.995Z,5.53
2023-01-09T22:05:58.532Z,5.62
2023-01-09T22:08:26.090Z,5.44
2023-01-09T22:10:59.791Z,5.45
2023-01-09T22:13:29.193Z,5.59
2023-01-09T22:16:02.941Z,5.68
2023-01-09T22:18:30.568Z,5.74
2023-01-09T22:20:58.193Z,5.80
2023-01-09T22:23:25.913Z,5.68
2023-01-09T22:25:54.574Z,5.82
2023-01-09T22:28:25.496Z,5.89
2023-01-09T22:30:54.524Z,5.80
2023-01-09T22:33:23.580Z,5.59
2023-01-09T22:35:52.681Z,5.60
2023-01-09T22:38:20.303Z,5.51
2023-01-09T22:40:48.943Z,5.36
2023-01-09T22:43:18.451Z,5.56
2023-01-09T22:45:46.076Z,5.54
2023-01-09T22:48:15.049Z,5.79
2023-01-09T22:50:45.775Z,5.72
2023-01-09T22:53:13.291Z,5.83
2023-01-09T22:55:40.920Z,5.88
2023-01-09T22:58:08.427Z,5.86
2023-01-09T23:00:35.929Z,5.84
2023-01-09T23:03:03.536Z,5.84
2023-01-09T23:05:32.506Z,5.74
2023-01-09T23:08:00.378Z,5.93
2023-01-09T23:10:27.820Z,5.89
2023-01-09T23:12:55.292Z,6.03
2023-01-09T23:15:22.718Z,6.08
2023-01-09T23:17:50.177Z,6.01
2023-01-09T23:20:17.813Z,6.02
2023-01-09T23:22:47.527Z,5.94
2023-01-09T23:25:15.676Z,5.66
2023-01-09T23:27:43.535Z,5.57
2023-01-09T23:30:12.833Z,5.52
2023-01-09T23:32:40.276Z,5.37
2023-01-09T23:35:08.246Z,5.45
2023-01-09T23:37:35.739Z,5.41
2023-01-09T23:40:05.417Z,5.24
2023-01-09T23:42:50.764Z,5.17
2023-01-09T23:45:18.486Z,5.23
2023-01-09T23:47:45.904Z,5.25
2023-01-09T23:50:13.365Z,5.19
2023-01-09T23:52:40.949Z,5.20
2023-01-09T23:55:13.103Z,5.23
2023-01-09T23:57:40.559Z,5.13
